sensor_id;sensor_type;location;lat;lon;timestamp;P1;durP1;ratioP1;P2;durP2;ratioP2
38117;SDS011;23928;47.562;7.508;2023-05-10T00:01:07;0.77;;;0.70;;
38117;SDS011;23928;47.562;7.508;2023-05-10T00:03:32;1.90;;;0.80;;
38117;SDS011;23928;47.562;7.508;2023-05-10T00:05:58;1.17;;;0.67;;
38117;SDS011;23928;47.562;7.508;2023-05-10T00:08:23;1.10;;;0.60;;
38117;SDS011;23928;47.562;7.508;2023-05-10T00:10:49;1.67;;;0.70;;
38117;SDS011;23928;47.562;7.508;2023-05-10T00:13:15;2.10;;;0.80;;
38117;SDS011;23928;47.562;7.508;2023-05-10T00:15:41;1.93;;;0.90;;
38117;SDS011;23928;47.562;7.508;2023-05-10T00:18:06;0.93;;;0.80;;
38117;SDS011;23928;47.562;7.508;2023-05-10T00:20:32;0.57;;;0.57;;
38117;SDS011;23928;47.562;7.508;2023-05-10T00:22:58;0.83;;;0.73;;
38117;SDS011;23928;47.562;7.508;2023-05-10T00:25:23;1.97;;;0.70;;
38117;SDS011;23928;47.562;7.508;2023-05-10T00:27:49;1.10;;;0.90;;
38117;SDS011;23928;47.562;7.508;2023-05-10T00:30:15;3.27;;;0.67;;
38117;SDS011;23928;47.562;7.508;2023-05-10T00:32:41;1.27;;;0.43;;
38117;SDS011;23928;47.562;7.508;2023-05-10T00:35:07;1.23;;;1.00;;
38117;SDS011;23928;47.562;7.508;2023-05-10T00:37:33;0.80;;;0.80;;
38117;SDS011;23928;47.562;7.508;2023-05-10T00:39:58;1.57;;;0.80;;
38117;SDS011;23928;47.562;7.508;2023-05-10T00:42:24;0.80;;;0.80;;
38117;SDS011;23928;47.562;7.508;2023-05-10T00:44:50;0.83;;;0.83;;
38117;SDS011;23928;47.562;7.508;2023-05-10T00:47:15;1.07;;;0.97;;
38117;SDS011;23928;47.562;7.508;2023-05-10T00:49:41;3.13;;;0.90;;
38117;SDS011;23928;47.562;7.508;2023-05-10T00:52:08;1.67;;;0.77;;
38117;SDS011;23928;47.562;7.508;2023-05-10T00:54:34;0.70;;;0.70;;
38117;SDS011;23928;47.562;7.508;2023-05-10T00:57:00;0.90;;;0.80;;
38117;SDS011;23928;47.562;7.508;2023-05-10T00:59:26;1.50;;;0.73;;
38117;SDS011;23928;47.562;7.508;2023-05-10T01:01:51;0.70;;;0.70;;
38117;SDS011;23928;47.562;7.508;2023-05-10T01:04:18;3.20;;;0.97;;
38117;SDS011;23928;47.562;7.508;2023-05-10T01:06:46;0.80;;;0.80;;
38117;SDS011;23928;47.562;7.508;2023-05-10T01:09:12;0.73;;;0.73;;
38117;SDS011;23928;47.562;7.508;2023-05-10T01:11:38;3.67;;;0.80;;
38117;SDS011;23928;47.562;7.508;2023-05-10T01:14:04;0.80;;;0.80;;
38117;SDS011;23928;47.562;7.508;2023-05-10T01:16:34;2.73;;;0.90;;
38117;SDS011;23928;47.562;7.508;2023-05-10T01:19:04;0.80;;;0.80;;
38117;SDS011;23928;47.562;7.508;2023-05-10T01:32:10;1.00;;;0.90;;
38117;SDS011;23928;47.562;7.508;2023-05-10T01:43:19;1.03;;;0.63;;
38117;SDS011;23928;47.562;7.508;2023-05-10T01:45:50;1.93;;;0.70;;
38117;SDS011;23928;47.562;7.508;2023-05-10T01:48:40;0.77;;;0.73;;
38117;SDS011;23928;47.562;7.508;2023-05-10T01:51:12;1.60;;;0.90;;
38117;SDS011;23928;47.562;7.508;2023-05-10T01:53:44;1.57;;;0.77;;
38117;SDS011;23928;47.562;7.508;2023-05-10T01:56:11;0.80;;;0.80;;
38117;SDS011;23928;47.562;7.508;2023-05-10T01:58:38;1.00;;;0.70;;
38117;SDS011;23928;47.562;7.508;2023-05-10T02:01:05;0.93;;;0.83;;
38117;SDS011;23928;47.562;7.508;2023-05-10T02:03:33;1.30;;;0.80;;
38117;SDS011;23928;47.562;7.508;2023-05-10T02:06:01;1.53;;;0.80;;
38117;SDS011;23928;47.562;7.508;2023-05-10T02:08:28;1.77;;;0.90;;
38117;SDS011;23928;47.562;7.508;2023-05-10T02:10:55;0.83;;;0.83;;
38117;SDS011;23928;47.562;7.508;2023-05-10T02:13:21;3.13;;;0.77;;
38117;SDS011;23928;47.562;7.508;2023-05-10T02:15:50;3.03;;;1.20;;
38117;SDS011;23928;47.562;7.508;2023-05-10T02:18:17;0.93;;;0.90;;
38117;SDS011;23928;47.562;7.508;2023-05-10T02:20:45;5.03;;;0.83;;
38117;SDS011;23928;47.562;7.508;2023-05-10T02:23:11;3.37;;;1.00;;
38117;SDS011;23928;47.562;7.508;2023-05-10T02:25:38;0.80;;;0.80;;
38117;SDS011;23928;47.562;7.508;2023-05-10T02:28:05;0.70;;;0.70;;
38117;SDS011;23928;47.562;7.508;2023-05-10T02:30:32;0.80;;;0.80;;
38117;SDS011;23928;47.562;7.508;2023-05-10T02:32:59;0.70;;;0.70;;
38117;SDS011;23928;47.562;7.508;2023-05-10T02:35:27;0.80;;;0.80;;
38117;SDS011;23928;47.562;7.508;2023-05-10T02:37:53;1.70;;;0.90;;
38117;SDS011;23928;47.562;7.508;2023-05-10T02:40:19;3.03;;;0.80;;
38117;SDS011;23928;47.562;7.508;2023-05-10T02:42:47;0.77;;;0.70;;
38117;SDS011;23928;47.562;7.508;2023-05-10T02:45:17;0.80;;;0.80;;
38117;SDS011;23928;47.562;7.508;2023-05-10T02:47:45;1.73;;;0.70;;
38117;SDS011;23928;47.562;7.508;2023-05-10T02:50:11;1.07;;;0.87;;
38117;SDS011;23928;47.562;7.508;2023-05-10T02:52:44;0.70;;;0.70;;
38117;SDS011;23928;47.562;7.508;2023-05-10T02:55:14;3.13;;;0.80;;
38117;SDS011;23928;47.562;7.508;2023-05-10T02:57:43;1.03;;;0.90;;
38117;SDS011;23928;47.562;7.508;2023-05-10T03:00:15;0.87;;;0.80;;
38117;SDS011;23928;47.562;7.508;2023-05-10T03:02:40;0.50;;;0.50;;
38117;SDS011;23928;47.562;7.508;2023-05-10T03:05:06;2.10;;;0.67;;
38117;SDS011;23928;47.562;7.508;2023-05-10T03:07:32;0.80;;;0.67;;
38117;SDS011;23928;47.562;7.508;2023-05-10T03:09:58;0.70;;;0.70;;
38117;SDS011;23928;47.562;7.508;2023-05-10T03:20:41;1.10;;;0.80;;
38117;SDS011;23928;47.562;7.508;2023-05-10T03:25:43;1.73;;;1.07;;
38117;SDS011;23928;47.562;7.508;2023-05-10T03:28:09;1.73;;;0.63;;
38117;SDS011;23928;47.562;7.508;2023-05-10T03:30:35;0.67;;;0.60;;
38117;SDS011;23928;47.562;7.508;2023-05-10T03:33:07;0.73;;;0.73;;
38117;SDS011;23928;47.562;7.508;2023-05-10T03:35:33;0.73;;;0.60;;
38117;SDS011;23928;47.562;7.508;2023-05-10T03:37:59;0.70;;;0.70;;
38117;SDS011;23928;47.562;7.508;2023-05-10T03:40:25;0.80;;;0.60;;
38117;SDS011;23928;47.562;7.508;2023-05-10T03:42:53;0.60;;;0.60;;
38117;SDS011;23928;47.562;7.508;2023-05-10T03:45:19;0.80;;;0.73;;
38117;SDS011;23928;47.562;7.508;2023-05-10T03:47:45;0.93;;;0.70;;
38117;SDS011;23928;47.562;7.508;2023-05-10T03:50:10;1.50;;;0.70;;
38117;SDS011;23928;47.562;7.508;2023-05-10T03:52:36;0.60;;;0.60;;
38117;SDS011;23928;47.562;7.508;2023-05-10T03:55:04;2.73;;;1.00;;
38117;SDS011;23928;47.562;7.508;2023-05-10T03:57:30;3.33;;;0.60;;
38117;SDS011;23928;47.562;7.508;2023-05-10T03:59:55;0.30;;;0.30;;
38117;SDS011;23928;47.562;7.508;2023-05-10T04:02:21;3.33;;;0.70;;
38117;SDS011;23928;47.562;7.508;2023-05-10T04:04:47;0.87;;;0.70;;
38117;SDS011;23928;47.562;7.508;2023-05-10T04:07:13;1.90;;;0.40;;
38117;SDS011;23928;47.562;7.508;2023-05-10T04:09:38;0.73;;;0.70;;
38117;SDS011;23928;47.562;7.508;2023-05-10T04:12:04;0.80;;;0.80;;
38117;SDS011;23928;47.562;7.508;2023-05-10T04:14:30;0.93;;;0.80;;
38117;SDS011;23928;47.562;7.508;2023-05-10T04:16:56;4.17;;;0.73;;
38117;SDS011;23928;47.562;7.508;2023-05-10T04:19:21;2.07;;;0.80;;
38117;SDS011;23928;47.562;7.508;2023-05-10T04:21:47;2.03;;;0.90;;
38117;SDS011;23928;47.562;7.508;2023-05-10T04:24:13;2.27;;;0.97;;
38117;SDS011;23928;47.562;7.508;2023-05-10T04:26:38;1.47;;;1.03;;
38117;SDS011;23928;47.562;7.508;2023-05-10T04:29:04;1.03;;;0.93;;
38117;SDS011;23928;47.562;7.508;2023-05-10T04:31:30;3.10;;;1.00;;
38117;SDS011;23928;47.562;7.508;2023-05-10T04:33:55;4.10;;;1.07;;
38117;SDS011;23928;47.562;7.508;2023-05-10T04:36:21;0.80;;;0.80;;
38117;SDS011;23928;47.562;7.508;2023-05-10T04:38:46;0.63;;;0.57;;
38117;SDS011;23928;47.562;7.508;2023-05-10T04:41:12;0.63;;;0.63;;
38117;SDS011;23928;47.562;7.508;2023-05-10T04:43:38;1.83;;;1.07;;
38117;SDS011;23928;47.562;7.508;2023-05-10T04:46:03;1.57;;;0.70;;
38117;SDS011;23928;47.562;7.508;2023-05-10T04:48:30;3.27;;;1.00;;
38117;SDS011;23928;47.562;7.508;2023-05-10T04:50:55;0.77;;;0.67;;
38117;SDS011;23928;47.562;7.508;2023-05-10T04:53:21;2.87;;;0.70;;
38117;SDS011;23928;47.562;7.508;2023-05-10T04:55:47;0.60;;;0.60;;
38117;SDS011;23928;47.562;7.508;2023-05-10T04:58:13;0.93;;;0.70;;
38117;SDS011;23928;47.562;7.508;2023-05-10T05:00:38;0.53;;;0.50;;
38117;SDS011;23928;47.562;7.508;2023-05-10T05:03:04;1.47;;;0.60;;
38117;SDS011;23928;47.562;7.508;2023-05-10T05:05:30;1.00;;;0.90;;
38117;SDS011;23928;47.562;7.508;2023-05-10T05:07:55;1.50;;;0.60;;
38117;SDS011;23928;47.562;7.508;2023-05-10T05:10:21;1.33;;;0.70;;
38117;SDS011;23928;47.562;7.508;2023-05-10T05:12:47;1.60;;;0.90;;
38117;SDS011;23928;47.562;7.508;2023-05-10T05:15:12;0.73;;;0.60;;
38117;SDS011;23928;47.562;7.508;2023-05-10T05:17:38;2.33;;;0.90;;
38117;SDS011;23928;47.562;7.508;2023-05-10T05:20:04;1.60;;;0.77;;
38117;SDS011;23928;47.562;7.508;2023-05-10T05:22:30;1.27;;;0.57;;
38117;SDS011;23928;47.562;7.508;2023-05-10T05:24:56;1.10;;;0.83;;
38117;SDS011;23928;47.562;7.508;2023-05-10T05:27:23;1.10;;;0.67;;
38117;SDS011;23928;47.562;7.508;2023-05-10T05:29:52;2.80;;;0.70;;
38117;SDS011;23928;47.562;7.508;2023-05-10T05:32:21;4.90;;;1.00;;
38117;SDS011;23928;47.562;7.508;2023-05-10T05:34:47;3.50;;;1.40;;
38117;SDS011;23928;47.562;7.508;2023-05-10T05:37:16;2.53;;;1.40;;
38117;SDS011;23928;47.562;7.508;2023-05-10T05:39:45;2.30;;;1.37;;
38117;SDS011;23928;47.562;7.508;2023-05-10T05:42:12;1.90;;;1.20;;
38117;SDS011;23928;47.562;7.508;2023-05-10T05:44:38;2.17;;;1.40;;
38117;SDS011;23928;47.562;7.508;2023-05-10T05:47:04;3.63;;;1.30;;
38117;SDS011;23928;47.562;7.508;2023-05-10T05:49:30;1.90;;;1.70;;
38117;SDS011;23928;47.562;7.508;2023-05-10T05:51:59;3.83;;;1.93;;
38117;SDS011;23928;47.562;7.508;2023-05-10T05:54:28;3.80;;;1.93;;
38117;SDS011;23928;47.562;7.508;2023-05-10T05:56:57;4.57;;;1.83;;
38117;SDS011;23928;47.562;7.508;2023-05-10T05:59:23;3.10;;;1.63;;
38117;SDS011;23928;47.562;7.508;2023-05-10T06:01:49;2.93;;;1.80;;
38117;SDS011;23928;47.562;7.508;2023-05-10T06:04:15;3.03;;;1.50;;
38117;SDS011;23928;47.562;7.508;2023-05-10T06:06:41;2.57;;;1.60;;
38117;SDS011;23928;47.562;7.508;2023-05-10T06:09:07;3.00;;;1.50;;
38117;SDS011;23928;47.562;7.508;2023-05-10T06:11:34;2.47;;;1.40;;
38117;SDS011;23928;47.562;7.508;2023-05-10T06:14:00;2.70;;;1.47;;
38117;SDS011;23928;47.562;7.508;2023-05-10T06:16:26;3.30;;;1.70;;
38117;SDS011;23928;47.562;7.508;2023-05-10T06:18:52;4.20;;;1.50;;
38117;SDS011;23928;47.562;7.508;2023-05-10T06:21:18;1.97;;;1.30;;
38117;SDS011;23928;47.562;7.508;2023-05-10T06:23:43;3.33;;;1.83;;
38117;SDS011;23928;47.562;7.508;2023-05-10T06:26:09;3.87;;;1.67;;
38117;SDS011;23928;47.562;7.508;2023-05-10T06:28:35;4.20;;;1.80;;
38117;SDS011;23928;47.562;7.508;2023-05-10T06:31:03;3.10;;;1.60;;
38117;SDS011;23928;47.562;7.508;2023-05-10T06:33:29;3.03;;;1.50;;
38117;SDS011;23928;47.562;7.508;2023-05-10T06:35:54;1.30;;;1.20;;
38117;SDS011;23928;47.562;7.508;2023-05-10T06:38:20;3.53;;;1.30;;
38117;SDS011;23928;47.562;7.508;2023-05-10T06:40:46;1.57;;;1.17;;
38117;SDS011;23928;47.562;7.508;2023-05-10T06:43:12;2.07;;;1.17;;
38117;SDS011;23928;47.562;7.508;2023-05-10T06:45:37;2.80;;;1.47;;
38117;SDS011;23928;47.562;7.508;2023-05-10T06:48:03;2.13;;;1.23;;
38117;SDS011;23928;47.562;7.508;2023-05-10T06:50:28;2.87;;;1.47;;
38117;SDS011;23928;47.562;7.508;2023-05-10T06:52:54;2.77;;;1.40;;
38117;SDS011;23928;47.562;7.508;2023-05-10T06:55:20;2.97;;;1.20;;
38117;SDS011;23928;47.562;7.508;2023-05-10T06:57:46;2.20;;;1.37;;
38117;SDS011;23928;47.562;7.508;2023-05-10T07:00:12;2.80;;;1.20;;
38117;SDS011;23928;47.562;7.508;2023-05-10T07:02:39;3.30;;;1.30;;
38117;SDS011;23928;47.562;7.508;2023-05-10T07:05:04;2.50;;;1.30;;
38117;SDS011;23928;47.562;7.508;2023-05-10T07:07:30;2.10;;;1.00;;
38117;SDS011;23928;47.562;7.508;2023-05-10T07:09:56;2.67;;;1.10;;
38117;SDS011;23928;47.562;7.508;2023-05-10T07:12:22;2.07;;;1.40;;
38117;SDS011;23928;47.562;7.508;2023-05-10T07:14:48;5.30;;;1.00;;
38117;SDS011;23928;47.562;7.508;2023-05-10T07:17:14;4.53;;;1.20;;
38117;SDS011;23928;47.562;7.508;2023-05-10T07:19:40;3.00;;;1.43;;
38117;SDS011;23928;47.562;7.508;2023-05-10T07:22:05;2.40;;;1.00;;
38117;SDS011;23928;47.562;7.508;2023-05-10T07:24:32;2.67;;;1.20;;
38117;SDS011;23928;47.562;7.508;2023-05-10T07:26:58;1.50;;;1.30;;
38117;SDS011;23928;47.562;7.508;2023-05-10T07:29:24;2.60;;;1.20;;
38117;SDS011;23928;47.562;7.508;2023-05-10T07:31:49;2.80;;;1.57;;
38117;SDS011;23928;47.562;7.508;2023-05-10T07:34:15;1.97;;;1.20;;
38117;SDS011;23928;47.562;7.508;2023-05-10T07:36:41;2.10;;;1.47;;
38117;SDS011;23928;47.562;7.508;2023-05-10T07:39:06;2.53;;;1.17;;
38117;SDS011;23928;47.562;7.508;2023-05-10T07:41:32;2.73;;;1.17;;
38117;SDS011;23928;47.562;7.508;2023-05-10T07:43:58;1.00;;;0.90;;
38117;SDS011;23928;47.562;7.508;2023-05-10T07:46:23;4.23;;;1.23;;
38117;SDS011;23928;47.562;7.508;2023-05-10T07:48:49;2.20;;;1.30;;
38117;SDS011;23928;47.562;7.508;2023-05-10T07:51:14;5.57;;;1.40;;
38117;SDS011;23928;47.562;7.508;2023-05-10T07:53:40;3.03;;;1.33;;
38117;SDS011;23928;47.562;7.508;2023-05-10T07:56:25;2.73;;;1.00;;
38117;SDS011;23928;47.562;7.508;2023-05-10T07:58:54;1.77;;;1.40;;
38117;SDS011;23928;47.562;7.508;2023-05-10T08:01:21;1.73;;;1.03;;
38117;SDS011;23928;47.562;7.508;2023-05-10T08:03:47;1.80;;;1.33;;
38117;SDS011;23928;47.562;7.508;2023-05-10T08:06:13;1.73;;;1.37;;
38117;SDS011;23928;47.562;7.508;2023-05-10T08:08:40;2.90;;;1.00;;
38117;SDS011;23928;47.562;7.508;2023-05-10T08:11:06;3.70;;;1.60;;
38117;SDS011;23928;47.562;7.508;2023-05-10T08:13:31;2.07;;;1.17;;
38117;SDS011;23928;47.562;7.508;2023-05-10T08:15:57;2.87;;;1.13;;
38117;SDS011;23928;47.562;7.508;2023-05-10T08:18:23;3.33;;;1.17;;
38117;SDS011;23928;47.562;7.508;2023-05-10T08:20:48;2.20;;;0.73;;
38117;SDS011;23928;47.562;7.508;2023-05-10T08:23:14;2.87;;;0.87;;
38117;SDS011;23928;47.562;7.508;2023-05-10T08:25:40;1.97;;;0.80;;
38117;SDS011;23928;47.562;7.508;2023-05-10T08:28:06;1.10;;;0.97;;
38117;SDS011;23928;47.562;7.508;2023-05-10T08:30:31;1.80;;;0.80;;
38117;SDS011;23928;47.562;7.508;2023-05-10T08:32:57;2.40;;;0.87;;
38117;SDS011;23928;47.562;7.508;2023-05-10T08:35:22;2.77;;;1.00;;
38117;SDS011;23928;47.562;7.508;2023-05-10T08:37:49;1.20;;;0.80;;
38117;SDS011;23928;47.562;7.508;2023-05-10T08:40:15;4.10;;;1.00;;
38117;SDS011;23928;47.562;7.508;2023-05-10T08:42:43;1.43;;;0.70;;
38117;SDS011;23928;47.562;7.508;2023-05-10T08:45:15;1.80;;;0.97;;
38117;SDS011;23928;47.562;7.508;2023-05-10T08:47:42;4.57;;;1.10;;
38117;SDS011;23928;47.562;7.508;2023-05-10T08:50:08;3.07;;;0.83;;
38117;SDS011;23928;47.562;7.508;2023-05-10T08:52:36;2.20;;;1.00;;
38117;SDS011;23928;47.562;7.508;2023-05-10T08:55:05;1.37;;;0.70;;
38117;SDS011;23928;47.562;7.508;2023-05-10T08:57:31;0.90;;;0.67;;
38117;SDS011;23928;47.562;7.508;2023-05-10T08:59:56;1.80;;;0.90;;
38117;SDS011;23928;47.562;7.508;2023-05-10T09:02:23;1.70;;;0.87;;
38117;SDS011;23928;47.562;7.508;2023-05-10T09:04:48;2.70;;;0.70;;
38117;SDS011;23928;47.562;7.508;2023-05-10T09:07:14;7.23;;;1.17;;
38117;SDS011;23928;47.562;7.508;2023-05-10T09:09:40;3.40;;;0.70;;
38117;SDS011;23928;47.562;7.508;2023-05-10T09:12:07;1.47;;;0.90;;
38117;SDS011;23928;47.562;7.508;2023-05-10T09:14:36;2.47;;;0.80;;
38117;SDS011;23928;47.562;7.508;2023-05-10T09:17:02;2.80;;;1.00;;
38117;SDS011;23928;47.562;7.508;2023-05-10T09:19:29;2.83;;;0.70;;
38117;SDS011;23928;47.562;7.508;2023-05-10T09:21:54;2.37;;;0.90;;
38117;SDS011;23928;47.562;7.508;2023-05-10T09:24:20;3.87;;;0.80;;
38117;SDS011;23928;47.562;7.508;2023-05-10T09:26:51;2.90;;;0.73;;
38117;SDS011;23928;47.562;7.508;2023-05-10T09:29:16;2.23;;;0.90;;
38117;SDS011;23928;47.562;7.508;2023-05-10T09:34:20;0.90;;;0.87;;
38117;SDS011;23928;47.562;7.508;2023-05-10T09:36:56;4.43;;;1.00;;
38117;SDS011;23928;47.562;7.508;2023-05-10T09:39:29;2.93;;;0.90;;
38117;SDS011;23928;47.562;7.508;2023-05-10T09:41:57;4.80;;;0.90;;
38117;SDS011;23928;47.562;7.508;2023-05-10T09:44:24;2.90;;;1.20;;
38117;SDS011;23928;47.562;7.508;2023-05-10T09:46:51;0.70;;;0.63;;
38117;SDS011;23928;47.562;7.508;2023-05-10T09:49:17;0.80;;;0.70;;
38117;SDS011;23928;47.562;7.508;2023-05-10T09:51:44;1.73;;;0.90;;
38117;SDS011;23928;47.562;7.508;2023-05-10T09:56:40;2.37;;;1.00;;
38117;SDS011;23928;47.562;7.508;2023-05-10T09:59:08;3.77;;;1.23;;
38117;SDS011;23928;47.562;7.508;2023-05-10T10:01:36;1.73;;;1.17;;
38117;SDS011;23928;47.562;7.508;2023-05-10T10:04:03;4.17;;;1.10;;
38117;SDS011;23928;47.562;7.508;2023-05-10T10:06:34;2.43;;;0.97;;
38117;SDS011;23928;47.562;7.508;2023-05-10T10:09:03;2.20;;;0.80;;
38117;SDS011;23928;47.562;7.508;2023-05-10T10:11:30;3.20;;;1.00;;
38117;SDS011;23928;47.562;7.508;2023-05-10T10:13:55;3.87;;;1.03;;
38117;SDS011;23928;47.562;7.508;2023-05-10T10:16:21;2.87;;;1.10;;
38117;SDS011;23928;47.562;7.508;2023-05-10T10:18:47;4.40;;;1.10;;
38117;SDS011;23928;47.562;7.508;2023-05-10T10:21:13;3.37;;;1.10;;
38117;SDS011;23928;47.562;7.508;2023-05-10T10:23:40;1.50;;;0.77;;
38117;SDS011;23928;47.562;7.508;2023-05-10T10:26:05;1.73;;;0.83;;
38117;SDS011;23928;47.562;7.508;2023-05-10T10:31:36;1.60;;;1.00;;
38117;SDS011;23928;47.562;7.508;2023-05-10T10:34:07;3.40;;;1.00;;
38117;SDS011;23928;47.562;7.508;2023-05-10T10:36:47;0.80;;;0.70;;
38117;SDS011;23928;47.562;7.508;2023-05-10T10:39:13;1.30;;;1.10;;
38117;SDS011;23928;47.562;7.508;2023-05-10T10:41:40;3.40;;;1.13;;
38117;SDS011;23928;47.562;7.508;2023-05-10T10:57:42;3.90;;;1.13;;
38117;SDS011;23928;47.562;7.508;2023-05-10T11:08:06;2.37;;;1.00;;
38117;SDS011;23928;47.562;7.508;2023-05-10T11:10:34;2.07;;;0.90;;
38117;SDS011;23928;47.562;7.508;2023-05-10T11:13:07;3.63;;;0.80;;
38117;SDS011;23928;47.562;7.508;2023-05-10T11:15:38;3.73;;;1.00;;
38117;SDS011;23928;47.562;7.508;2023-05-10T11:18:20;2.67;;;0.83;;
38117;SDS011;23928;47.562;7.508;2023-05-10T11:20:52;2.60;;;1.00;;
38117;SDS011;23928;47.562;7.508;2023-05-10T11:23:23;3.17;;;1.20;;
38117;SDS011;23928;47.562;7.508;2023-05-10T11:25:53;2.03;;;0.90;;
38117;SDS011;23928;47.562;7.508;2023-05-10T11:28:19;1.83;;;1.00;;
38117;SDS011;23928;47.562;7.508;2023-05-10T11:30:45;4.63;;;0.80;;
38117;SDS011;23928;47.562;7.508;2023-05-10T11:33:15;2.50;;;1.03;;
38117;SDS011;23928;47.562;7.508;2023-05-10T11:35:42;3.23;;;0.90;;
38117;SDS011;23928;47.562;7.508;2023-05-10T11:38:11;2.03;;;0.80;;
38117;SDS011;23928;47.562;7.508;2023-05-10T11:40:38;1.20;;;0.83;;
38117;SDS011;23928;47.562;7.508;2023-05-10T11:43:04;2.00;;;1.07;;
38117;SDS011;23928;47.562;7.508;2023-05-10T11:45:33;1.60;;;0.70;;
38117;SDS011;23928;47.562;7.508;2023-05-10T11:47:59;1.80;;;0.70;;
38117;SDS011;23928;47.562;7.508;2023-05-10T11:50:25;2.50;;;1.00;;
38117;SDS011;23928;47.562;7.508;2023-05-10T11:52:52;1.50;;;0.57;;
38117;SDS011;23928;47.562;7.508;2023-05-10T11:55:18;1.77;;;0.90;;
38117;SDS011;23928;47.562;7.508;2023-05-10T11:57:44;1.97;;;0.73;;
38117;SDS011;23928;47.562;7.508;2023-05-10T12:00:11;3.03;;;1.00;;
38117;SDS011;23928;47.562;7.508;2023-05-10T12:02:37;1.53;;;0.90;;
38117;SDS011;23928;47.562;7.508;2023-05-10T12:05:04;2.90;;;1.10;;
38117;SDS011;23928;47.562;7.508;2023-05-10T12:07:30;1.70;;;0.70;;
38117;SDS011;23928;47.562;7.508;2023-05-10T12:10:03;3.30;;;0.87;;
38117;SDS011;23928;47.562;7.508;2023-05-10T12:12:41;1.20;;;0.67;;
38117;SDS011;23928;47.562;7.508;2023-05-10T12:15:18;1.37;;;0.70;;
38117;SDS011;23928;47.562;7.508;2023-05-10T12:17:48;2.70;;;0.67;;
38117;SDS011;23928;47.562;7.508;2023-05-10T12:20:23;0.57;;;0.57;;
38117;SDS011;23928;47.562;7.508;2023-05-10T12:22:58;0.70;;;0.50;;
38117;SDS011;23928;47.562;7.508;2023-05-10T12:25:24;1.93;;;0.50;;
38117;SDS011;23928;47.562;7.508;2023-05-10T12:27:55;2.40;;;0.63;;
38117;SDS011;23928;47.562;7.508;2023-05-10T12:30:26;1.13;;;0.73;;
38117;SDS011;23928;47.562;7.508;2023-05-10T12:33:09;2.20;;;0.50;;
38117;SDS011;23928;47.562;7.508;2023-05-10T12:35:46;3.33;;;0.70;;
38117;SDS011;23928;47.562;7.508;2023-05-10T12:38:29;0.37;;;0.37;;
38117;SDS011;23928;47.562;7.508;2023-05-10T12:41:13;1.50;;;0.53;;
38117;SDS011;23928;47.562;7.508;2023-05-10T12:43:40;2.77;;;0.43;;
38117;SDS011;23928;47.562;7.508;2023-05-10T12:46:11;2.13;;;0.50;;
38117;SDS011;23928;47.562;7.508;2023-05-10T12:48:39;1.63;;;0.50;;
38117;SDS011;23928;47.562;7.508;2023-05-10T12:51:06;1.80;;;0.40;;
38117;SDS011;23928;47.562;7.508;2023-05-10T12:53:36;1.80;;;0.53;;
38117;SDS011;23928;47.562;7.508;2023-05-10T12:56:03;0.30;;;0.23;;
38117;SDS011;23928;47.562;7.508;2023-05-10T12:58:28;0.27;;;0.27;;
38117;SDS011;23928;47.562;7.508;2023-05-10T13:00:54;0.23;;;0.23;;
38117;SDS011;23928;47.562;7.508;2023-05-10T13:03:21;2.10;;;0.60;;
38117;SDS011;23928;47.562;7.508;2023-05-10T13:05:47;0.97;;;0.37;;
38117;SDS011;23928;47.562;7.508;2023-05-10T13:08:13;1.77;;;0.40;;
38117;SDS011;23928;47.562;7.508;2023-05-10T13:10:38;1.73;;;0.40;;
38117;SDS011;23928;47.562;7.508;2023-05-10T13:13:04;1.17;;;0.67;;
38117;SDS011;23928;47.562;7.508;2023-05-10T13:15:30;1.87;;;0.50;;
38117;SDS011;23928;47.562;7.508;2023-05-10T13:17:55;0.90;;;0.30;;
38117;SDS011;23928;47.562;7.508;2023-05-10T13:20:21;1.63;;;0.80;;
38117;SDS011;23928;47.562;7.508;2023-05-10T13:22:47;1.40;;;0.60;;
38117;SDS011;23928;47.562;7.508;2023-05-10T13:25:12;1.83;;;0.60;;
38117;SDS011;23928;47.562;7.508;2023-05-10T13:27:41;0.63;;;0.40;;
38117;SDS011;23928;47.562;7.508;2023-05-10T13:30:07;0.53;;;0.50;;
38117;SDS011;23928;47.562;7.508;2023-05-10T13:32:34;0.60;;;0.50;;
38117;SDS011;23928;47.562;7.508;2023-05-10T13:35:00;0.77;;;0.37;;
38117;SDS011;23928;47.562;7.508;2023-05-10T13:37:28;0.30;;;0.30;;
38117;SDS011;23928;47.562;7.508;2023-05-10T13:39:54;1.17;;;0.43;;
38117;SDS011;23928;47.562;7.508;2023-05-10T13:42:21;0.57;;;0.20;;
38117;SDS011;23928;47.562;7.508;2023-05-10T13:44:47;1.37;;;0.43;;
38117;SDS011;23928;47.562;7.508;2023-05-10T13:47:13;0.67;;;0.40;;
38117;SDS011;23928;47.562;7.508;2023-05-10T13:49:39;1.07;;;0.40;;
38117;SDS011;23928;47.562;7.508;2023-05-10T13:52:04;0.53;;;0.33;;
38117;SDS011;23928;47.562;7.508;2023-05-10T13:54:34;0.60;;;0.20;;
38117;SDS011;23928;47.562;7.508;2023-05-10T13:57:00;0.93;;;0.27;;
38117;SDS011;23928;47.562;7.508;2023-05-10T13:59:26;1.27;;;0.40;;
38117;SDS011;23928;47.562;7.508;2023-05-10T14:01:52;2.90;;;0.40;;
38117;SDS011;23928;47.562;7.508;2023-05-10T14:04:17;1.10;;;0.67;;
38117;SDS011;23928;47.562;7.508;2023-05-10T14:06:43;0.77;;;0.33;;
38117;SDS011;23928;47.562;7.508;2023-05-10T14:09:08;0.87;;;0.60;;
38117;SDS011;23928;47.562;7.508;2023-05-10T14:11:34;0.37;;;0.37;;
38117;SDS011;23928;47.562;7.508;2023-05-10T14:14:00;8.30;;;1.60;;
38117;SDS011;23928;47.562;7.508;2023-05-10T14:16:25;1.60;;;0.40;;
38117;SDS011;23928;47.562;7.508;2023-05-10T14:18:52;0.97;;;0.30;;
38117;SDS011;23928;47.562;7.508;2023-05-10T14:21:17;1.30;;;0.43;;
38117;SDS011;23928;47.562;7.508;2023-05-10T14:23:43;2.27;;;0.53;;
38117;SDS011;23928;47.562;7.508;2023-05-10T14:26:09;2.30;;;0.30;;
38117;SDS011;23928;47.562;7.508;2023-05-10T14:28:34;1.03;;;0.30;;
38117;SDS011;23928;47.562;7.508;2023-05-10T14:31:00;0.83;;;0.43;;
38117;SDS011;23928;47.562;7.508;2023-05-10T14:33:25;0.20;;;0.20;;
38117;SDS011;23928;47.562;7.508;2023-05-10T14:35:51;0.87;;;0.40;;
38117;SDS011;23928;47.562;7.508;2023-05-10T14:38:17;0.53;;;0.13;;
38117;SDS011;23928;47.562;7.508;2023-05-10T14:40:42;0.77;;;0.30;;
38117;SDS011;23928;47.562;7.508;2023-05-10T14:43:08;2.20;;;0.30;;
38117;SDS011;23928;47.562;7.508;2023-05-10T14:45:34;1.17;;;0.40;;
38117;SDS011;23928;47.562;7.508;2023-05-10T14:48:00;3.70;;;0.33;;
38117;SDS011;23928;47.562;7.508;2023-05-10T14:50:26;3.13;;;0.37;;
38117;SDS011;23928;47.562;7.508;2023-05-10T14:52:51;1.50;;;0.50;;
38117;SDS011;23928;47.562;7.508;2023-05-10T14:55:17;1.27;;;0.40;;
38117;SDS011;23928;47.562;7.508;2023-05-10T14:57:42;1.07;;;0.37;;
38117;SDS011;23928;47.562;7.508;2023-05-10T15:00:09;1.40;;;0.70;;
38117;SDS011;23928;47.562;7.508;2023-05-10T15:02:35;2.67;;;0.70;;
38117;SDS011;23928;47.562;7.508;2023-05-10T15:05:01;1.17;;;0.70;;
38117;SDS011;23928;47.562;7.508;2023-05-10T15:07:27;1.80;;;0.43;;
38117;SDS011;23928;47.562;7.508;2023-05-10T15:09:52;0.87;;;0.50;;
38117;SDS011;23928;47.562;7.508;2023-05-10T15:12:19;1.47;;;0.50;;
38117;SDS011;23928;47.562;7.508;2023-05-10T15:14:45;1.30;;;0.40;;
38117;SDS011;23928;47.562;7.508;2023-05-10T15:17:11;1.93;;;0.50;;
38117;SDS011;23928;47.562;7.508;2023-05-10T15:19:36;0.87;;;0.33;;
38117;SDS011;23928;47.562;7.508;2023-05-10T15:22:03;0.43;;;0.40;;
38117;SDS011;23928;47.562;7.508;2023-05-10T15:24:30;1.60;;;0.57;;
38117;SDS011;23928;47.562;7.508;2023-05-10T15:26:55;1.03;;;0.40;;
38117;SDS011;23928;47.562;7.508;2023-05-10T15:29:21;1.73;;;0.50;;
38117;SDS011;23928;47.562;7.508;2023-05-10T15:31:47;0.83;;;0.50;;
38117;SDS011;23928;47.562;7.508;2023-05-10T15:34:13;0.43;;;0.37;;
38117;SDS011;23928;47.562;7.508;2023-05-10T15:36:39;0.70;;;0.60;;
38117;SDS011;23928;47.562;7.508;2023-05-10T15:39:05;0.53;;;0.53;;
38117;SDS011;23928;47.562;7.508;2023-05-10T15:41:31;0.50;;;0.40;;
38117;SDS011;23928;47.562;7.508;2023-05-10T15:43:57;1.17;;;0.43;;
38117;SDS011;23928;47.562;7.508;2023-05-10T15:46:24;1.60;;;0.50;;